sensor_id;sensor_type;location;lat;lon;timestamp;P1;durP1;ratioP1;P2;durP2;ratioP2
3006;SDS011;1513;47.650;10.720;2023-04-25T00:00:30;3.43;;;2.63;;
3006;SDS011;1513;47.650;10.720;2023-04-25T00:02:56;20.80;;;9.00;;
3006;SDS011;1513;47.650;10.720;2023-04-25T00:05:24;6.33;;;3.57;;
3006;SDS011;1513;47.650;10.720;2023-04-25T00:07:51;2.50;;;2.30;;
3006;SDS011;1513;47.650;10.720;2023-04-25T00:10:17;8.03;;;3.90;;
3006;SDS011;1513;47.650;10.720;2023-04-25T00:12:45;8.27;;;3.93;;
3006;SDS011;1513;47.650;10.720;2023-04-25T00:15:11;7.20;;;4.10;;
3006;SDS011;1513;47.650;10.720;2023-04-25T00:17:38;17.13;;;8.53;;
3006;SDS011;1513;47.650;10.720;2023-04-25T00:20:04;15.20;;;5.70;;
3006;SDS011;1513;47.650;10.720;2023-04-25T00:22:34;6.57;;;3.00;;
3006;SDS011;1513;47.650;10.720;2023-04-25T00:25:02;9.73;;;6.30;;
3006;SDS011;1513;47.650;10.720;2023-04-25T00:27:29;8.80;;;4.37;;
3006;SDS011;1513;47.650;10.720;2023-04-25T00:29:56;7.57;;;3.43;;
3006;SDS011;1513;47.650;10.720;2023-04-25T00:32:22;8.07;;;3.90;;
3006;SDS011;1513;47.650;10.720;2023-04-25T00:34:48;18.13;;;5.97;;
3006;SDS011;1513;47.650;10.720;2023-04-25T00:37:14;9.70;;;5.77;;
3006;SDS011;1513;47.650;10.720;2023-04-25T00:39:41;7.80;;;4.40;;
3006;SDS011;1513;47.650;10.720;2023-04-25T00:42:07;10.83;;;5.90;;
3006;SDS011;1513;47.650;10.720;2023-04-25T00:44:33;10.93;;;5.33;;
3006;SDS011;1513;47.650;10.720;2023-04-25T00:47:01;4.70;;;3.10;;
3006;SDS011;1513;47.650;10.720;2023-04-25T00:49:28;8.87;;;5.53;;
3006;SDS011;1513;47.650;10.720;2023-04-25T00:51:54;4.20;;;3.40;;
3006;SDS011;1513;47.650;10.720;2023-04-25T00:54:21;8.57;;;4.80;;
3006;SDS011;1513;47.650;10.720;2023-04-25T00:56:48;6.20;;;3.63;;
3006;SDS011;1513;47.650;10.720;2023-04-25T00:59:14;3.63;;;2.93;;
3006;SDS011;1513;47.650;10.720;2023-04-25T01:01:41;5.40;;;2.60;;
3006;SDS011;1513;47.650;10.720;2023-04-25T01:04:07;5.47;;;3.70;;
3006;SDS011;1513;47.650;10.720;2023-04-25T01:06:34;5.20;;;2.73;;
3006;SDS011;1513;47.650;10.720;2023-04-25T01:09:01;3.83;;;2.90;;
3006;SDS011;1513;47.650;10.720;2023-04-25T01:11:27;4.20;;;2.93;;
3006;SDS011;1513;47.650;10.720;2023-04-25T01:13:54;5.07;;;3.20;;
3006;SDS011;1513;47.650;10.720;2023-04-25T01:16:20;5.53;;;3.43;;
3006;SDS011;1513;47.650;10.720;2023-04-25T01:18:48;5.10;;;3.40;;
3006;SDS011;1513;47.650;10.720;2023-04-25T01:21:16;5.17;;;3.23;;
3006;SDS011;1513;47.650;10.720;2023-04-25T01:23:43;7.93;;;3.50;;
3006;SDS011;1513;47.650;10.720;2023-04-25T01:26:10;3.80;;;3.30;;
3006;SDS011;1513;47.650;10.720;2023-04-25T01:28:37;6.53;;;4.70;;
3006;SDS011;1513;47.650;10.720;2023-04-25T01:31:07;3.47;;;3.17;;
3006;SDS011;1513;47.650;10.720;2023-04-25T01:33:34;3.07;;;2.70;;
3006;SDS011;1513;47.650;10.720;2023-04-25T01:36:00;7.20;;;3.20;;
3006;SDS011;1513;47.650;10.720;2023-04-25T01:38:27;7.37;;;2.83;;
3006;SDS011;1513;47.650;10.720;2023-04-25T01:40:53;5.80;;;2.73;;
3006;SDS011;1513;47.650;10.720;2023-04-25T01:43:20;8.30;;;3.50;;
3006;SDS011;1513;47.650;10.720;2023-04-25T01:45:47;5.23;;;4.10;;
3006;SDS011;1513;47.650;10.720;2023-04-25T01:48:14;6.40;;;3.07;;
3006;SDS011;1513;47.650;10.720;2023-04-25T01:50:42;7.93;;;4.03;;
3006;SDS011;1513;47.650;10.720;2023-04-25T01:53:10;5.40;;;3.20;;
3006;SDS011;1513;47.650;10.720;2023-04-25T01:55:38;6.20;;;3.33;;
3006;SDS011;1513;47.650;10.720;2023-04-25T01:58:08;4.63;;;3.40;;
3006;SDS011;1513;47.650;10.720;2023-04-25T02:00:52;5.83;;;3.20;;
3006;SDS011;1513;47.650;10.720;2023-04-25T02:03:19;7.30;;;3.13;;
3006;SDS011;1513;47.650;10.720;2023-04-25T02:05:45;5.33;;;3.90;;
3006;SDS011;1513;47.650;10.720;2023-04-25T02:08:12;3.80;;;2.87;;
3006;SDS011;1513;47.650;10.720;2023-04-25T02:10:39;2.43;;;2.23;;
3006;SDS011;1513;47.650;10.720;2023-04-25T02:13:13;5.40;;;2.93;;
3006;SDS011;1513;47.650;10.720;2023-04-25T02:16:00;5.50;;;3.50;;
3006;SDS011;1513;47.650;10.720;2023-04-25T02:18:27;5.10;;;3.60;;
3006;SDS011;1513;47.650;10.720;2023-04-25T02:20:53;7.90;;;3.10;;
3006;SDS011;1513;47.650;10.720;2023-04-25T02:23:19;6.93;;;3.37;;
3006;SDS011;1513;47.650;10.720;2023-04-25T02:25:46;11.23;;;3.30;;
3006;SDS011;1513;47.650;10.720;2023-04-25T02:28:12;7.50;;;2.80;;
3006;SDS011;1513;47.650;10.720;2023-04-25T02:30:39;4.83;;;2.97;;
3006;SDS011;1513;47.650;10.720;2023-04-25T02:33:05;5.37;;;3.20;;
3006;SDS011;1513;47.650;10.720;2023-04-25T02:35:31;6.13;;;3.00;;
3006;SDS011;1513;47.650;10.720;2023-04-25T02:37:57;4.00;;;3.17;;
3006;SDS011;1513;47.650;10.720;2023-04-25T02:40:24;5.20;;;2.90;;
3006;SDS011;1513;47.650;10.720;2023-04-25T02:42:53;5.50;;;3.63;;
3006;SDS011;1513;47.650;10.720;2023-04-25T02:45:19;6.40;;;3.60;;
3006;SDS011;1513;47.650;10.720;2023-04-25T02:47:46;4.40;;;2.87;;
3006;SDS011;1513;47.650;10.720;2023-04-25T02:50:12;4.53;;;3.27;;
3006;SDS011;1513;47.650;10.720;2023-04-25T02:52:39;5.00;;;3.00;;
3006;SDS011;1513;47.650;10.720;2023-04-25T02:55:23;4.37;;;3.37;;
3006;SDS011;1513;47.650;10.720;2023-04-25T02:57:49;9.30;;;2.77;;
3006;SDS011;1513;47.650;10.720;2023-04-25T03:00:26;3.00;;;2.80;;
3006;SDS011;1513;47.650;10.720;2023-04-25T03:02:53;4.60;;;2.83;;
3006;SDS011;1513;47.650;10.720;2023-04-25T03:05:20;6.13;;;2.90;;
3006;SDS011;1513;47.650;10.720;2023-04-25T03:07:46;11.70;;;2.80;;
3006;SDS011;1513;47.650;10.720;2023-04-25T03:10:12;3.40;;;2.50;;
3006;SDS011;1513;47.650;10.720;2023-04-25T03:12:39;5.10;;;2.80;;
3006;SDS011;1513;47.650;10.720;2023-04-25T03:15:05;4.07;;;2.90;;
3006;SDS011;1513;47.650;10.720;2023-04-25T03:17:32;2.77;;;2.57;;
3006;SDS011;1513;47.650;10.720;2023-04-25T03:19:58;4.77;;;2.40;;
3006;SDS011;1513;47.650;10.720;2023-04-25T03:22:25;9.70;;;2.50;;
3006;SDS011;1513;47.650;10.720;2023-04-25T03:24:51;3.80;;;2.60;;
3006;SDS011;1513;47.650;10.720;2023-04-25T03:27:18;3.47;;;2.53;;
3006;SDS011;1513;47.650;10.720;2023-04-25T03:29:45;5.97;;;3.17;;
3006;SDS011;1513;47.650;10.720;2023-04-25T03:32:11;2.63;;;2.43;;
3006;SDS011;1513;47.650;10.720;2023-04-25T03:34:38;4.80;;;2.47;;
3006;SDS011;1513;47.650;10.720;2023-04-25T03:37:05;3.20;;;2.50;;
3006;SDS011;1513;47.650;10.720;2023-04-25T03:39:36;2.90;;;2.60;;
3006;SDS011;1513;47.650;10.720;2023-04-25T03:42:02;4.90;;;2.37;;
3006;SDS011;1513;47.650;10.720;2023-04-25T03:44:29;6.20;;;3.37;;
3006;SDS011;1513;47.650;10.720;2023-04-25T03:46:55;3.00;;;2.70;;
3006;SDS011;1513;47.650;10.720;2023-04-25T03:49:23;3.70;;;2.43;;
3006;SDS011;1513;47.650;10.720;2023-04-25T03:51:56;4.50;;;2.23;;
3006;SDS011;1513;47.650;10.720;2023-04-25T03:54:23;6.23;;;2.30;;
3006;SDS011;1513;47.650;10.720;2023-04-25T03:56:57;4.37;;;3.00;;
3006;SDS011;1513;47.650;10.720;2023-04-25T03:59:26;4.83;;;3.40;;
3006;SDS011;1513;47.650;10.720;2023-04-25T04:01:52;4.93;;;4.20;;
3006;SDS011;1513;47.650;10.720;2023-04-25T04:04:19;10.00;;;4.93;;
3006;SDS011;1513;47.650;10.720;2023-04-25T04:06:46;6.37;;;4.33;;
3006;SDS011;1513;47.650;10.720;2023-04-25T04:09:18;6.90;;;4.27;;
3006;SDS011;1513;47.650;10.720;2023-04-25T04:11:45;7.17;;;4.30;;
3006;SDS011;1513;47.650;10.720;2023-04-25T04:14:12;5.17;;;3.90;;
3006;SDS011;1513;47.650;10.720;2023-04-25T04:16:42;9.23;;;3.70;;
3006;SDS011;1513;47.650;10.720;2023-04-25T04:19:09;10.80;;;4.23;;
3006;SDS011;1513;47.650;10.720;2023-04-25T04:21:36;6.87;;;3.43;;
3006;SDS011;1513;47.650;10.720;2023-04-25T04:24:03;8.90;;;3.43;;
3006;SDS011;1513;47.650;10.720;2023-04-25T04:26:40;7.03;;;3.50;;
3006;SDS011;1513;47.650;10.720;2023-04-25T04:29:24;6.67;;;3.77;;
3006;SDS011;1513;47.650;10.720;2023-04-25T04:31:58;3.90;;;3.23;;
3006;SDS011;1513;47.650;10.720;2023-04-25T04:34:26;4.53;;;2.60;;
3006;SDS011;1513;47.650;10.720;2023-04-25T04:36:53;6.40;;;2.90;;
3006;SDS011;1513;47.650;10.720;2023-04-25T04:39:20;4.50;;;3.60;;
3006;SDS011;1513;47.650;10.720;2023-04-25T04:42:04;6.80;;;3.20;;
3006;SDS011;1513;47.650;10.720;2023-04-25T04:44:38;10.40;;;3.23;;
3006;SDS011;1513;47.650;10.720;2023-04-25T04:47:25;3.93;;;2.60;;
3006;SDS011;1513;47.650;10.720;2023-04-25T04:50:10;5.50;;;3.93;;
3006;SDS011;1513;47.650;10.720;2023-04-25T04:52:54;6.73;;;4.10;;
3006;SDS011;1513;47.650;10.720;2023-04-25T04:55:36;7.37;;;4.97;;
3006;SDS011;1513;47.650;10.720;2023-04-25T04:58:14;12.50;;;6.87;;
3006;SDS011;1513;47.650;10.720;2023-04-25T05:00:50;11.23;;;5.63;;
3006;SDS011;1513;47.650;10.720;2023-04-25T05:03:19;12.67;;;4.70;;
3006;SDS011;1513;47.650;10.720;2023-04-25T05:06:11;8.07;;;5.03;;
3006;SDS011;1513;47.650;10.720;2023-04-25T05:09:03;7.93;;;4.07;;
3006;SDS011;1513;47.650;10.720;2023-04-25T05:11:39;5.63;;;4.50;;
3006;SDS011;1513;47.650;10.720;2023-04-25T05:14:33;10.30;;;5.73;;
3006;SDS011;1513;47.650;10.720;2023-04-25T05:17:22;22.00;;;11.80;;
3006;SDS011;1513;47.650;10.720;2023-04-25T05:20:16;33.50;;;18.60;;
3006;SDS011;1513;47.650;10.720;2023-04-25T05:23:04;29.10;;;15.20;;
3006;SDS011;1513;47.650;10.720;2023-04-25T05:25:49;17.20;;;9.40;;
3006;SDS011;1513;47.650;10.720;2023-04-25T05:28:33;10.47;;;7.00;;
3006;SDS011;1513;47.650;10.720;2023-04-25T05:31:18;9.80;;;6.33;;
3006;SDS011;1513;47.650;10.720;2023-04-25T05:33:59;10.10;;;5.73;;
3006;SDS011;1513;47.650;10.720;2023-04-25T05:36:35;5.10;;;3.53;;
3006;SDS011;1513;47.650;10.720;2023-04-25T05:39:02;13.43;;;3.70;;
3006;SDS011;1513;47.650;10.720;2023-04-25T05:41:52;8.37;;;3.23;;
3006;SDS011;1513;47.650;10.720;2023-04-25T05:44:37;9.23;;;5.03;;
3006;SDS011;1513;47.650;10.720;2023-04-25T05:47:26;11.37;;;6.27;;
3006;SDS011;1513;47.650;10.720;2023-04-25T05:50:10;10.20;;;5.53;;
3006;SDS011;1513;47.650;10.720;2023-04-25T05:52:49;6.33;;;4.37;;
3006;SDS011;1513;47.650;10.720;2023-04-25T05:55:29;8.20;;;4.83;;
3006;SDS011;1513;47.650;10.720;2023-04-25T05:57:58;11.30;;;6.10;;
3006;SDS011;1513;47.650;10.720;2023-04-25T06:00:24;8.80;;;5.63;;
3006;SDS011;1513;47.650;10.720;2023-04-25T06:02:50;11.60;;;4.23;;
3006;SDS011;1513;47.650;10.720;2023-04-25T06:05:17;7.53;;;4.30;;
3006;SDS011;1513;47.650;10.720;2023-04-25T06:07:46;8.63;;;4.40;;
3006;SDS011;1513;47.650;10.720;2023-04-25T06:10:13;9.20;;;3.97;;
3006;SDS011;1513;47.650;10.720;2023-04-25T06:12:41;10.97;;;3.83;;
3006;SDS011;1513;47.650;10.720;2023-04-25T06:15:07;6.00;;;3.67;;
3006;SDS011;1513;47.650;10.720;2023-04-25T06:17:33;11.00;;;4.00;;
3006;SDS011;1513;47.650;10.720;2023-04-25T06:20:00;7.50;;;4.33;;
3006;SDS011;1513;47.650;10.720;2023-04-25T06:22:27;6.90;;;3.93;;
3006;SDS011;1513;47.650;10.720;2023-04-25T06:24:53;5.23;;;4.10;;
3006;SDS011;1513;47.650;10.720;2023-04-25T06:27:22;9.43;;;4.30;;
3006;SDS011;1513;47.650;10.720;2023-04-25T06:29:48;6.00;;;3.90;;
3006;SDS011;1513;47.650;10.720;2023-04-25T06:32:14;6.17;;;3.90;;
3006;SDS011;1513;47.650;10.720;2023-04-25T06:34:43;6.87;;;4.10;;
3006;SDS011;1513;47.650;10.720;2023-04-25T06:37:09;5.10;;;3.80;;
3006;SDS011;1513;47.650;10.720;2023-04-25T06:39:35;5.17;;;3.47;;
3006;SDS011;1513;47.650;10.720;2023-04-25T06:42:01;5.80;;;3.30;;
3006;SDS011;1513;47.650;10.720;2023-04-25T06:44:43;24.50;;;10.70;;
3006;SDS011;1513;47.650;10.720;2023-04-25T06:47:11;17.63;;;8.53;;
3006;SDS011;1513;47.650;10.720;2023-04-25T06:49:41;15.23;;;6.17;;
3006;SDS011;1513;47.650;10.720;2023-04-25T06:52:08;11.90;;;5.90;;
3006;SDS011;1513;47.650;10.720;2023-04-25T06:54:36;11.70;;;5.20;;
3006;SDS011;1513;47.650;10.720;2023-04-25T06:57:17;4.43;;;3.07;;
3006;SDS011;1513;47.650;10.720;2023-04-25T06:59:43;7.47;;;3.90;;
3006;SDS011;1513;47.650;10.720;2023-04-25T07:02:09;4.40;;;3.13;;
3006;SDS011;1513;47.650;10.720;2023-04-25T07:04:36;4.83;;;3.20;;
3006;SDS011;1513;47.650;10.720;2023-04-25T07:07:02;9.50;;;3.70;;
3006;SDS011;1513;47.650;10.720;2023-04-25T07:09:44;4.93;;;3.40;;
3006;SDS011;1513;47.650;10.720;2023-04-25T07:12:10;5.37;;;3.17;;
3006;SDS011;1513;47.650;10.720;2023-04-25T07:14:38;5.87;;;3.67;;
3006;SDS011;1513;47.650;10.720;2023-04-25T07:17:05;4.53;;;3.33;;
3006;SDS011;1513;47.650;10.720;2023-04-25T07:19:32;10.50;;;3.20;;
3006;SDS011;1513;47.650;10.720;2023-04-25T07:22:01;4.63;;;3.13;;
3006;SDS011;1513;47.650;10.720;2023-04-25T07:24:27;6.40;;;3.83;;
3006;SDS011;1513;47.650;10.720;2023-04-25T07:26:55;5.47;;;3.33;;
3006;SDS011;1513;47.650;10.720;2023-04-25T07:29:28;3.70;;;2.90;;
3006;SDS011;1513;47.650;10.720;2023-04-25T07:31:58;4.00;;;2.60;;
3006;SDS011;1513;47.650;10.720;2023-04-25T07:34:24;2.73;;;2.30;;
3006;SDS011;1513;47.650;10.720;2023-04-25T07:36:50;3.80;;;2.50;;
3006;SDS011;1513;47.650;10.720;2023-04-25T07:39:18;4.80;;;2.63;;
3006;SDS011;1513;47.650;10.720;2023-04-25T07:41:44;6.57;;;3.00;;
3006;SDS011;1513;47.650;10.720;2023-04-25T07:44:16;3.43;;;2.50;;
3006;SDS011;1513;47.650;10.720;2023-04-25T07:46:43;8.50;;;2.40;;
3006;SDS011;1513;47.650;10.720;2023-04-25T07:49:10;2.43;;;2.03;;
3006;SDS011;1513;47.650;10.720;2023-04-25T07:51:36;4.77;;;2.10;;
3006;SDS011;1513;47.650;10.720;2023-04-25T07:54:07;10.30;;;2.63;;
3006;SDS011;1513;47.650;10.720;2023-04-25T07:56:43;2.53;;;2.10;;
3006;SDS011;1513;47.650;10.720;2023-04-25T07:59:09;4.53;;;2.00;;
3006;SDS011;1513;47.650;10.720;2023-04-25T08:01:35;5.23;;;2.60;;
3006;SDS011;1513;47.650;10.720;2023-04-25T08:04:04;3.60;;;2.27;;
3006;SDS011;1513;47.650;10.720;2023-04-25T08:06:46;7.60;;;2.50;;
3006;SDS011;1513;47.650;10.720;2023-04-25T08:09:17;6.10;;;3.50;;
3006;SDS011;1513;47.650;10.720;2023-04-25T08:11:45;4.37;;;2.70;;
3006;SDS011;1513;47.650;10.720;2023-04-25T08:14:14;7.93;;;3.40;;
3006;SDS011;1513;47.650;10.720;2023-04-25T08:16:42;6.00;;;1.90;;
3006;SDS011;1513;47.650;10.720;2023-04-25T08:19:09;2.97;;;1.90;;
3006;SDS011;1513;47.650;10.720;2023-04-25T08:21:36;1.80;;;1.70;;
3006;SDS011;1513;47.650;10.720;2023-04-25T08:24:05;3.17;;;1.73;;
3006;SDS011;1513;47.650;10.720;2023-04-25T08:26:36;4.87;;;1.80;;
3006;SDS011;1513;47.650;10.720;2023-04-25T08:29:04;4.40;;;1.63;;
3006;SDS011;1513;47.650;10.720;2023-04-25T08:31:30;2.80;;;1.80;;
3006;SDS011;1513;47.650;10.720;2023-04-25T08:33:59;3.17;;;1.90;;
3006;SDS011;1513;47.650;10.720;2023-04-25T08:36:42;2.23;;;1.67;;
3006;SDS011;1513;47.650;10.720;2023-04-25T08:39:38;5.53;;;1.73;;
3006;SDS011;1513;47.650;10.720;2023-04-25T08:42:27;4.30;;;1.80;;
3006;SDS011;1513;47.650;10.720;2023-04-25T08:44:54;6.70;;;2.13;;
3006;SDS011;1513;47.650;10.720;2023-04-25T08:47:24;2.87;;;2.10;;
3006;SDS011;1513;47.650;10.720;2023-04-25T08:49:55;5.83;;;2.30;;
3006;SDS011;1513;47.650;10.720;2023-04-25T08:52:22;3.17;;;2.00;;
3006;SDS011;1513;47.650;10.720;2023-04-25T08:54:50;2.80;;;2.40;;
3006;SDS011;1513;47.650;10.720;2023-04-25T08:57:18;6.43;;;2.30;;
3006;SDS011;1513;47.650;10.720;2023-04-25T08:59:45;2.10;;;1.90;;
3006;SDS011;1513;47.650;10.720;2023-04-25T09:02:13;1.70;;;1.60;;
3006;SDS011;1513;47.650;10.720;2023-04-25T09:04:44;2.43;;;1.87;;
3006;SDS011;1513;47.650;10.720;2023-04-25T09:07:11;2.17;;;1.97;;
3006;SDS011;1513;47.650;10.720;2023-04-25T09:09:40;4.27;;;2.40;;
3006;SDS011;1513;47.650;10.720;2023-04-25T09:12:08;1.87;;;1.77;;
3006;SDS011;1513;47.650;10.720;2023-04-25T09:14:35;2.57;;;1.47;;
3006;SDS011;1513;47.650;10.720;2023-04-25T09:17:05;1.70;;;1.40;;
3006;SDS011;1513;47.650;10.720;2023-04-25T09:19:45;2.20;;;1.47;;
3006;SDS011;1513;47.650;10.720;2023-04-25T09:22:16;4.07;;;1.63;;
3006;SDS011;1513;47.650;10.720;2023-04-25T09:24:46;2.27;;;1.73;;
3006;SDS011;1513;47.650;10.720;2023-04-25T09:27:19;2.50;;;1.67;;
3006;SDS011;1513;47.650;10.720;2023-04-25T09:29:58;2.50;;;1.40;;
3006;SDS011;1513;47.650;10.720;2023-04-25T09:32:27;1.70;;;1.60;;
3006;SDS011;1513;47.650;10.720;2023-04-25T09:34:56;2.13;;;1.90;;
3006;SDS011;1513;47.650;10.720;2023-04-25T09:37:23;2.03;;;1.70;;
3006;SDS011;1513;47.650;10.720;2023-04-25T09:40:13;3.80;;;1.77;;
3006;SDS011;1513;47.650;10.720;2023-04-25T09:42:50;5.70;;;2.00;;
3006;SDS011;1513;47.650;10.720;2023-04-25T09:45:17;2.37;;;2.10;;
3006;SDS011;1513;47.650;10.720;2023-04-25T09:47:44;4.80;;;1.77;;
3006;SDS011;1513;47.650;10.720;2023-04-25T09:50:16;1.90;;;1.50;;
3006;SDS011;1513;47.650;10.720;2023-04-25T09:53:01;2.17;;;1.50;;
3006;SDS011;1513;47.650;10.720;2023-04-25T09:55:33;2.43;;;1.70;;
3006;SDS011;1513;47.650;10.720;2023-04-25T09:58:03;2.03;;;1.57;;
3006;SDS011;1513;47.650;10.720;2023-04-25T10:00:33;3.67;;;1.90;;
3006;SDS011;1513;47.650;10.720;2023-04-25T10:03:12;1.80;;;1.50;;
3006;SDS011;1513;47.650;10.720;2023-04-25T10:05:55;2.00;;;1.43;;
3006;SDS011;1513;47.650;10.720;2023-04-25T10:08:28;4.90;;;1.77;;
3006;SDS011;1513;47.650;10.720;2023-04-25T10:11:01;3.47;;;1.60;;
3006;SDS011;1513;47.650;10.720;2023-04-25T10:13:33;3.70;;;2.07;;
3006;SDS011;1513;47.650;10.720;2023-04-25T10:16:01;2.80;;;2.50;;
3006;SDS011;1513;47.650;10.720;2023-04-25T10:18:29;3.93;;;2.33;;
3006;SDS011;1513;47.650;10.720;2023-04-25T10:21:04;2.20;;;2.00;;
3006;SDS011;1513;47.650;10.720;2023-04-25T10:23:31;3.03;;;1.70;;
3006;SDS011;1513;47.650;10.720;2023-04-25T10:25:59;1.97;;;1.87;;
3006;SDS011;1513;47.650;10.720;2023-04-25T10:28:26;4.93;;;2.03;;
3006;SDS011;1513;47.650;10.720;2023-04-25T10:30:57;3.53;;;1.93;;
3006;SDS011;1513;47.650;10.720;2023-04-25T10:33:37;6.50;;;2.20;;
3006;SDS011;1513;47.650;10.720;2023-04-25T10:38:37;2.27;;;2.10;;
3006;SDS011;1513;47.650;10.720;2023-04-25T10:41:04;2.07;;;1.87;;
3006;SDS011;1513;47.650;10.720;2023-04-25T10:43:34;5.60;;;1.70;;
3006;SDS011;1513;47.650;10.720;2023-04-25T10:48:45;1.50;;;1.40;;
3006;SDS011;1513;47.650;10.720;2023-04-25T10:51:16;1.73;;;1.40;;
3006;SDS011;1513;47.650;10.720;2023-04-25T10:56:20;3.30;;;1.70;;
3006;SDS011;1513;47.650;10.720;2023-04-25T10:58:47;1.67;;;1.57;;
3006;SDS011;1513;47.650;10.720;2023-04-25T11:01:14;3.63;;;1.50;;
3006;SDS011;1513;47.650;10.720;2023-04-25T11:03:41;2.93;;;1.80;;
3006;SDS011;1513;47.650;10.720;2023-04-25T11:06:18;1.10;;;1.10;;
3006;SDS011;1513;47.650;10.720;2023-04-25T11:09:09;0.80;;;0.80;;
3006;SDS011;1513;47.650;10.720;2023-04-25T11:11:38;1.10;;;0.80;;
3006;SDS011;1513;47.650;10.720;2023-04-25T11:14:04;0.97;;;0.90;;
3006;SDS011;1513;47.650;10.720;2023-04-25T11:16:31;0.50;;;0.50;;
3006;SDS011;1513;47.650;10.720;2023-04-25T11:18:58;0.60;;;0.50;;
3006;SDS011;1513;47.650;10.720;2023-04-25T11:21:27;0.90;;;0.60;;
3006;SDS011;1513;47.650;10.720;2023-04-25T11:23:54;1.33;;;0.50;;
3006;SDS011;1513;47.650;10.720;2023-04-25T11:26:24;1.07;;;0.60;;
3006;SDS011;1513;47.650;10.720;2023-04-25T11:28:51;0.57;;;0.50;;
3006;SDS011;1513;47.650;10.720;2023-04-25T11:31:19;1.07;;;0.47;;
3006;SDS011;1513;47.650;10.720;2023-04-25T11:33:46;0.50;;;0.50;;
3006;SDS011;1513;47.650;10.720;2023-04-25T11:36:12;0.60;;;0.53;;
3006;SDS011;1513;47.650;10.720;2023-04-25T11:38:39;0.60;;;0.60;;
3006;SDS011;1513;47.650;10.720;2023-04-25T11:41:05;0.67;;;0.60;;
3006;SDS011;1513;47.650;10.720;2023-04-25T11:43:31;1.90;;;0.60;;
3006;SDS011;1513;47.650;10.720;2023-04-25T11:45:58;1.53;;;0.60;;
3006;SDS011;1513;47.650;10.720;2023-04-25T11:48:24;0.63;;;0.63;;
3006;SDS011;1513;47.650;10.720;2023-04-25T11:50:51;0.60;;;0.60;;
3006;SDS011;1513;47.650;10.720;2023-04-25T11:53:18;0.90;;;0.90;;
3006;SDS011;1513;47.650;10.720;2023-04-25T11:55:44;0.60;;;0.60;;
3006;SDS011;1513;47.650;10.720;2023-04-25T11:58:11;0.70;;;0.70;;
3006;SDS011;1513;47.650;10.720;2023-04-25T12:00:38;1.83;;;0.70;;
3006;SDS011;1513;47.650;10.720;2023-04-25T12:03:08;0.80;;;0.80;;
3006;SDS011;1513;47.650;10.720;2023-04-25T12:05:35;2.30;;;0.70;;
3006;SDS011;1513;47.650;10.720;2023-04-25T12:08:09;1.00;;;0.90;;
3006;SDS011;1513;47.650;10.720;2023-04-25T12:10:39;0.70;;;0.70;;
3006;SDS011;1513;47.650;10.720;2023-04-25T12:13:21;0.80;;;0.80;;
3006;SDS011;1513;47.650;10.720;2023-04-25T12:15:49;0.90;;;0.90;;
3006;SDS011;1513;47.650;10.720;2023-04-25T12:18:18;2.23;;;1.00;;
3006;SDS011;1513;47.650;10.720;2023-04-25T12:20:48;0.90;;;0.90;;
3006;SDS011;1513;47.650;10.720;2023-04-25T12:23:14;2.13;;;1.40;;
3006;SDS011;1513;47.650;10.720;2023-04-25T12:25:41;1.30;;;1.20;;
3006;SDS011;1513;47.650;10.720;2023-04-25T12:28:19;1.03;;;1.00;;
3006;SDS011;1513;47.650;10.720;2023-04-25T12:33:29;1.00;;;1.00;;
3006;SDS011;1513;47.650;10.720;2023-04-25T12:35:56;1.53;;;1.20;;
3006;SDS011;1513;47.650;10.720;2023-04-25T12:38:29;4.00;;;1.60;;
3006;SDS011;1513;47.650;10.720;2023-04-25T12:40:57;2.63;;;1.80;;
3006;SDS011;1513;47.650;10.720;2023-04-25T12:43:23;5.13;;;2.70;;
3006;SDS011;1513;47.650;10.720;2023-04-25T12:45:50;4.23;;;2.83;;
3006;SDS011;1513;47.650;10.720;2023-04-25T12:48:17;3.50;;;3.13;;
3006;SDS011;1513;47.650;10.720;2023-04-25T12:50:45;1.53;;;1.43;;
3006;SDS011;1513;47.650;10.720;2023-04-25T12:53:15;1.80;;;1.70;;
3006;SDS011;1513;47.650;10.720;2023-04-25T12:55:41;3.67;;;2.87;;
3006;SDS011;1513;47.650;10.720;2023-04-25T12:58:08;6.97;;;3.20;;
3006;SDS011;1513;47.650;10.720;2023-04-25T13:00:35;5.77;;;4.03;;
3006;SDS011;1513;47.650;10.720;2023-04-25T13:03:01;3.57;;;2.23;;
3006;SDS011;1513;47.650;10.720;2023-04-25T13:05:28;2.43;;;2.07;;
3006;SDS011;1513;47.650;10.720;2023-04-25T13:07:55;2.70;;;2.33;;
3006;SDS011;1513;47.650;10.720;2023-04-25T13:10:22;2.10;;;2.00;;
3006;SDS011;1513;47.650;10.720;2023-04-25T13:12:48;1.80;;;1.70;;
3006;SDS011;1513;47.650;10.720;2023-04-25T13:15:15;4.40;;;1.90;;
3006;SDS011;1513;47.650;10.720;2023-04-25T13:17:42;1.50;;;1.40;;
3006;SDS011;1513;47.650;10.720;2023-04-25T13:20:08;1.33;;;1.23;;
3006;SDS011;1513;47.650;10.720;2023-04-25T13:22:35;1.93;;;1.57;;
3006;SDS011;1513;47.650;10.720;2023-04-25T13:25:03;1.37;;;1.20;;
3006;SDS011;1513;47.650;10.720;2023-04-25T13:27:29;2.00;;;1.40;;
3006;SDS011;1513;47.650;10.720;2023-04-25T13:29:58;3.93;;;1.00;;
3006;SDS011;1513;47.650;10.720;2023-04-25T13:32:32;1.30;;;1.23;;
3006;SDS011;1513;47.650;10.720;2023-04-25T13:35:01;2.20;;;1.97;;
3006;SDS011;1513;47.650;10.720;2023-04-25T13:37:34;2.67;;;2.47;;
3006;SDS011;1513;47.650;10.720;2023-04-25T13:40:01;1.73;;;1.53;;
3006;SDS011;1513;47.650;10.720;2023-04-25T13:42:30;2.90;;;2.57;;
3006;SDS011;1513;47.650;10.720;2023-04-25T13:44:56;3.37;;;2.43;;
3006;SDS011;1513;47.650;10.720;2023-04-25T13:47:23;5.70;;;2.90;;
3006;SDS011;1513;47.650;10.720;2023-04-25T13:49:50;4.47;;;3.70;;
3006;SDS011;1513;47.650;10.720;2023-04-25T13:52:16;3.40;;;2.70;;
3006;SDS011;1513;47.650;10.720;2023-04-25T13:54:43;3.07;;;2.37;;
3006;SDS011;1513;47.650;10.720;2023-04-25T13:57:09;1.53;;;1.43;;
3006;SDS011;1513;47.650;10.720;2023-04-25T13:59:36;1.50;;;1.43;;
3006;SDS011;1513;47.650;10.720;2023-04-25T14:02:03;1.33;;;1.23;;
3006;SDS011;1513;47.650;10.720;2023-04-25T14:04:29;2.33;;;1.77;;
3006;SDS011;1513;47.650;10.720;2023-04-25T14:06:56;1.70;;;1.60;;
3006;SDS011;1513;47.650;10.720;2023-04-25T14:09:22;0.90;;;0.90;;
3006;SDS011;1513;47.650;10.720;2023-04-25T14:11:52;1.00;;;1.00;;
3006;SDS011;1513;47.650;10.720;2023-04-25T14:14:19;1.03;;;1.03;;
3006;SDS011;1513;47.650;10.720;2023-04-25T14:16:46;4.00;;;1.13;;
3006;SDS011;1513;47.650;10.720;2023-04-25T14:19:15;1.53;;;1.43;;
3006;SDS011;1513;47.650;10.720;2023-04-25T14:21:42;1.70;;;1.60;;
3006;SDS011;1513;47.650;10.720;2023-04-25T14:24:09;1.93;;;1.80;;
3006;SDS011;1513;47.650;10.720;2023-04-25T14:26:38;1.90;;;1.80;;
3006;SDS011;1513;47.650;10.720;2023-04-25T14:29:06;2.13;;;1.33;;
3006;SDS011;1513;47.650;10.720;2023-04-25T14:31:33;2.93;;;2.63;;
3006;SDS011;1513;47.650;10.720;2023-04-25T14:33:59;2.90;;;2.50;;
3006;SDS011;1513;47.650;10.720;2023-04-25T14:36:27;1.60;;;1.50;;
3006;SDS011;1513;47.650;10.720;2023-04-25T14:38:54;3.07;;;2.70;;
3006;SDS011;1513;47.650;10.720;2023-04-25T14:41:20;3.17;;;2.23;;
3006;SDS011;1513;47.650;10.720;2023-04-25T14:43:46;2.50;;;1.57;;
3006;SDS011;1513;47.650;10.720;2023-04-25T14:46:12;1.27;;;1.20;;
3006;SDS011;1513;47.650;10.720;2023-04-25T14:48:39;1.27;;;1.00;;
3006;SDS011;1513;47.650;10.720;2023-04-25T14:51:05;0.80;;;0.80;;
3006;SDS011;1513;47.650;10.720;2023-04-25T14:53:32;1.93;;;1.00;;
3006;SDS011;1513;47.650;10.720;2023-04-25T14:55:58;4.80;;;2.70;;
3006;SDS011;1513;47.650;10.720;2023-04-25T14:58:24;7.13;;;3.70;;
3006;SDS011;1513;47.650;10.720;2023-04-25T15:00:50;8.53;;;4.40;;
3006;SDS011;1513;47.650;10.720;2023-04-25T15:03:17;9.90;;;4.70;;
3006;SDS011;1513;47.650;10.720;2023-04-25T15:05:43;10.40;;;4.57;;
3006;SDS011;1513;47.650;10.720;2023-04-25T15:08:09;14.73;;;6.13;;
3006;SDS011;1513;47.650;10.720;2023-04-25T15:10:36;6.10;;;3.83;;
3006;SDS011;1513;47.650;10.720;2023-04-25T15:13:02;15.10;;;7.40;;
3006;SDS011;1513;47.650;10.720;2023-04-25T15:15:29;8.03;;;4.93;;
3006;SDS011;1513;47.650;10.720;2023-04-25T15:17:55;11.43;;;7.60;;
3006;SDS011;1513;47.650;10.720;2023-04-25T15:20:22;3.83;;;2.90;;
3006;SDS011;1513;47.650;10.720;2023-04-25T15:22:48;2.57;;;1.90;;
3006;SDS011;1513;47.650;10.720;2023-04-25T15:25:15;1.60;;;1.53;;